Time,TemperatureF,DewpointF,PressureIn,WindDirection,WindDirectionDegrees,WindSpeedMPH,WindSpeedGustMPH,Humidity,HourlyPrecipIn,Conditions,Clouds,dailyrainin,SoftwareType,DateUTC
2013-10-24 00:02:00,31.0,14.5,29.98,WSW,255,3.0,6.0,50,0.00,,,0.00,WeatherDisplay:10.37,2013-10-24 05:02:00,
2013-10-24 00:12:00,30.7,14.7,29.98,West,259,3.0,6.0,51,0.00,,,0.00,WeatherDisplay:10.37,2013-10-24 05:12:00,
2013-10-24 00:22:00,30.4,14.4,29.98,WSW,250,3.0,5.0,51,0.00,,,0.00,WeatherDisplay:10.37,2013-10-24 05:22:00,
2013-10-24 00:32:00,30.2,15.1,29.98,WSW,240,2.0,6.0,53,0.00,,,0.00,WeatherDisplay:10.37,2013-10-24 05:32:00,
2013-10-24 00:42:00,29.8,14.8,29.98,WSW,239,3.0,6.0,53,0.00,,,0.00,WeatherDisplay:10.37,2013-10-24 05:42:00,
2013-10-24 00:52:00,29.5,14.4,29.98,SW,235,2.0,5.0,53,0.00,,,0.00,WeatherDisplay:10.37,2013-10-24 05:52:00,
2013-10-24 01:02:00,29.4,15.6,29.98,SW,235,2.0,5.0,56,0.00,,,0.00,WeatherDisplay:10.37,2013-10-24 06:02:00,
2013-10-24 01:12:00,29.4,15.7,29.98,WSW,246,3.0,7.0,56,0.00,,,0.00,WeatherDisplay:10.37,2013-10-24 06:12:00,
2013-10-24 01:22:00,29.5,15.7,29.98,West,260,2.0,6.0,56,0.00,,,0.00,WeatherDisplay:10.37,2013-10-24 06:22:00,
2013-10-24 01:32:00,29.5,15.7,29.98,WSW,256,3.0,6.0,56,0.00,,,0.00,WeatherDisplay:10.37,2013-10-24 06:32:00,
2013-10-24 01:42:00,29.5,16.1,29.98,West,277,3.0,9.0,57,0.00,,,0.00,WeatherDisplay:10.37,2013-10-24 06:42:00,
2013-10-24 01:52:00,29.5,16.1,29.98,West,281,3.0,7.0,57,0.00,,,0.00,WeatherDisplay:10.37,2013-10-24 06:52:00,
2013-10-24 02:02:00,29.2,15.9,29.98,West,263,3.0,7.0,57,0.00,,,0.00,WeatherDisplay:10.37,2013-10-24 07:02:00,
2013-10-24 02:12:00,28.9,16.0,29.98,WSW,257,5.0,7.0,58,0.00,,,0.00,WeatherDisplay:10.37,2013-10-24 07:12:00,
2013-10-24 02:22:00,28.9,16.0,29.98,West,267,5.0,9.0,58,0.00,,,0.00,WeatherDisplay:10.37,2013-10-24 07:22:00,
2013-10-24 02:32:00,28.6,15.7,29.98,West,272,2.0,6.0,58,0.00,,,0.00,WeatherDisplay:10.37,2013-10-24 07:32:00,
2013-10-24 02:42:00,28.4,15.9,29.98,West,271,3.0,8.0,59,0.00,,,0.00,WeatherDisplay:10.37,2013-10-24 07:42:00,
2013-10-24 02:52:00,28.2,16.1,29.98,WSW,257,3.0,7.0,60,0.00,,,0.00,WeatherDisplay:10.37,2013-10-24 07:52:00,
2013-10-24 03:02:00,28.0,15.9,29.98,West,275,2.0,8.0,60,0.00,,,0.00,WeatherDisplay:10.37,2013-10-24 08:02:00,
2013-10-24 03:12:00,27.5,15.4,29.98,NW,304,2.0,7.0,60,0.00,,,0.00,WeatherDisplay:10.37,2013-10-24 08:12:00,
2013-10-24 03:22:00,26.8,14.4,29.98,WNW,298,2.0,6.0,59,0.00,,,0.00,WeatherDisplay:10.37,2013-10-24 08:22:00,
2013-10-24 03:32:00,26.4,14.4,29.98,West,278,2.0,4.0,60,0.00,,,0.00,WeatherDisplay:10.37,2013-10-24 08:32:00,
2013-10-24 03:42:00,26.1,14.5,29.98,WNW,285,2.0,5.0,61,0.00,,,0.00,WeatherDisplay:10.37,2013-10-24 08:42:00,
2013-10-24 03:52:00,26.2,15.0,29.98,West,261,3.0,6.0,62,0.00,,,0.00,WeatherDisplay:10.37,2013-10-24 08:52:00,
2013-10-24 04:02:00,26.6,15.7,29.98,WSW,254,3.0,6.0,63,0.00,,,0.00,WeatherDisplay:10.37,2013-10-24 09:02:00,
2013-10-24 04:12:00,27.1,17.3,29.98,West,281,3.0,7.0,66,0.00,,,0.00,WeatherDisplay:10.37,2013-10-24 09:12:00,
2013-10-24 04:22:00,27.3,17.1,30.00,NW,314,2.0,6.0,65,0.00,,,0.00,WeatherDisplay:10.37,2013-10-24 09:22:00,
2013-10-24 04:32:00,28.1,17.8,30.00,WNW,302,2.0,5.0,65,0.00,,,0.00,WeatherDisplay:10.37,2013-10-24 09:32:00,
2013-10-24 04:42:00,29.1,19.2,30.00,NW,310,2.0,6.0,66,0.00,,,0.00,WeatherDisplay:10.37,2013-10-24 09:42:00,
2013-10-24 04:52:00,30.0,20.0,30.00,WNW,301,2.0,6.0,66,0.00,,,0.00,WeatherDisplay:10.37,2013-10-24 09:52:00,
2013-10-24 05:02:00,30.9,20.5,30.00,WNW,283,7.0,11.0,65,0.00,,,0.00,WeatherDisplay:10.37,2013-10-24 10:02:00,
2013-10-24 05:12:00,31.6,20.1,30.01,WNW,284,5.0,7.0,62,0.00,,,0.00,WeatherDisplay:10.37,2013-10-24 10:12:00,
2013-10-24 05:22:00,31.8,19.9,30.03,West,280,5.0,6.0,61,0.00,,,0.00,WeatherDisplay:10.37,2013-10-24 10:22:00,
2013-10-24 05:32:00,32.0,19.3,30.00,WNW,297,3.0,8.0,59,0.00,,,0.00,WeatherDisplay:10.37,2013-10-24 10:32:00,
2013-10-24 05:42:00,32.2,19.4,30.00,WNW,292,6.0,9.0,59,0.00,,,0.00,WeatherDisplay:10.37,2013-10-24 10:42:00,
2013-10-24 05:52:00,32.5,19.4,30.00,WNW,289,5.0,9.0,58,0.00,,,0.00,WeatherDisplay:10.37,2013-10-24 10:52:00,
2013-10-24 06:02:00,32.5,19.4,30.03,West,280,3.0,10.0,58,0.00,,,0.00,WeatherDisplay:10.37,2013-10-24 11:02:00,
2013-10-24 06:12:00,32.7,19.6,30.03,WNW,286,5.0,7.0,58,0.00,,,0.00,WeatherDisplay:10.37,2013-10-24 11:12:00,
2013-10-24 06:22:00,32.7,19.1,30.03,West,280,5.0,8.0,57,0.00,,,0.00,WeatherDisplay:10.37,2013-10-24 11:22:00,
2013-10-24 06:32:00,32.9,19.3,30.03,West,277,3.0,9.0,57,0.00,,,0.00,WeatherDisplay:10.37,2013-10-24 11:32:00,
2013-10-24 06:42:00,32.9,19.3,30.03,West,263,5.0,8.0,57,0.00,,,0.00,WeatherDisplay:10.37,2013-10-24 11:42:00,
2013-10-24 06:52:00,32.9,19.3,30.03,West,270,3.0,8.0,57,0.00,,,0.00,WeatherDisplay:10.37,2013-10-24 11:52:00,
2013-10-24 07:02:00,32.7,18.7,30.03,West,261,5.0,7.0,56,0.00,,,0.00,WeatherDisplay:10.37,2013-10-24 12:02:00,
2013-10-24 07:12:00,32.5,18.6,30.03,WSW,253,3.0,6.0,56,0.00,,,0.00,WeatherDisplay:10.37,2013-10-24 12:12:00,
2013-10-24 07:22:00,32.5,19.0,30.03,West,265,2.0,7.0,57,0.00,,,0.00,WeatherDisplay:10.37,2013-10-24 12:22:00,
2013-10-24 07:32:00,32.7,19.1,30.03,West,270,3.0,6.0,57,0.00,,,0.00,WeatherDisplay:10.37,2013-10-24 12:32:00,
2013-10-24 07:42:00,32.9,19.3,30.04,West,263,3.0,8.0,57,0.00,,,0.00,WeatherDisplay:10.37,2013-10-24 12:42:00,
2013-10-24 07:52:00,33.1,19.5,30.06,West,264,5.0,8.0,57,0.00,,,0.00,WeatherDisplay:10.37,2013-10-24 12:52:00,
2013-10-24 08:02:00,33.3,19.2,30.06,West,266,3.0,9.0,56,0.00,,,0.00,WeatherDisplay:10.37,2013-10-24 13:02:00,
2013-10-24 08:12:00,33.6,19.6,30.06,West,276,3.0,9.0,56,0.00,,,0.00,WeatherDisplay:10.37,2013-10-24 13:12:00,
2013-10-24 08:22:00,33.8,19.7,30.06,West,273,6.0,7.0,56,0.00,,,0.00,WeatherDisplay:10.37,2013-10-24 13:22:00,
2013-10-24 08:32:00,34.1,19.6,30.06,WSW,250,5.0,8.0,55,0.00,,,0.00,WeatherDisplay:10.37,2013-10-24 13:32:00,
2013-10-24 08:42:00,34.5,20.0,30.06,West,267,7.0,11.0,55,0.00,,,0.00,WeatherDisplay:10.37,2013-10-24 13:42:00,
2013-10-24 08:52:00,35.1,20.5,30.06,West,268,6.0,11.0,55,0.00,,,0.00,WeatherDisplay:10.37,2013-10-24 13:52:00,
2013-10-24 09:02:00,35.4,20.8,30.06,West,274,5.0,10.0,55,0.00,,,0.00,WeatherDisplay:10.37,2013-10-24 14:02:00,
2013-10-24 09:12:00,35.8,20.7,30.07,West,271,3.0,9.0,54,0.00,,,0.00,WeatherDisplay:10.37,2013-10-24 14:12:00,
2013-10-24 09:22:00,35.8,20.7,30.09,WNW,283,3.0,10.0,54,0.00,,,0.00,WeatherDisplay:10.37,2013-10-24 14:22:00,
2013-10-24 09:32:00,36.6,21.5,30.09,West,278,5.0,9.0,54,0.00,,,0.00,WeatherDisplay:10.37,2013-10-24 14:32:00,
2013-10-24 09:42:00,39.4,23.2,30.09,West,267,6.0,10.0,52,0.00,,,0.00,WeatherDisplay:10.37,2013-10-24 14:42:00,
2013-10-24 09:52:00,40.5,21.8,30.09,WNW,282,5.0,9.0,47,0.00,,,0.00,WeatherDisplay:10.37,2013-10-24 14:52:00,
2013-10-24 10:02:00,40.5,20.8,30.09,WNW,286,6.0,14.0,45,0.00,,,0.00,WeatherDisplay:10.37,2013-10-24 15:02:00,
2013-10-24 10:12:00,40.5,21.3,30.09,West,266,3.0,12.0,46,0.00,,,0.00,WeatherDisplay:10.37,2013-10-24 15:12:00,
2013-10-24 10:22:00,41.7,21.9,30.09,West,280,9.0,20.0,45,0.00,,,0.00,WeatherDisplay:10.37,2013-10-24 15:22:00,
2013-10-24 10:32:00,41.7,21.4,30.09,WNW,283,5.0,13.0,44,0.00,,,0.00,WeatherDisplay:10.37,2013-10-24 15:32:00,
2013-10-24 10:42:00,42.6,22.2,30.09,NW,312,6.0,9.0,44,0.00,,,0.00,WeatherDisplay:10.37,2013-10-24 15:42:00,
2013-10-24 10:52:00,41.2,20.3,30.09,WNW,299,3.0,10.0,43,0.00,,,0.00,WeatherDisplay:10.37,2013-10-24 15:52:00,
2013-10-24 11:02:00,42.7,21.7,30.09,WNW,290,6.0,12.0,43,0.00,,,0.00,WeatherDisplay:10.37,2013-10-24 16:02:00,
2013-10-24 11:12:00,41.9,21.0,30.10,West,278,5.0,15.0,43,0.00,,,0.00,WeatherDisplay:10.37,2013-10-24 16:12:00,
2013-10-24 11:22:00,41.6,21.3,30.12,West,270,3.0,15.0,44,0.00,,,0.00,WeatherDisplay:10.37,2013-10-24 16:22:00,
2013-10-24 11:32:00,42.8,21.8,30.09,West,278,6.0,13.0,43,0.00,,,0.00,WeatherDisplay:10.37,2013-10-24 16:32:00,
2013-10-24 11:42:00,42.8,21.8,30.09,WNW,286,6.0,9.0,43,0.00,,,0.00,WeatherDisplay:10.37,2013-10-24 16:42:00,
2013-10-24 11:52:00,42.6,21.7,30.09,West,271,9.0,11.0,43,0.00,,,0.00,WeatherDisplay:10.37,2013-10-24 16:52:00,
2013-10-24 12:02:00,42.4,22.0,30.09,West,270,3.0,11.0,44,0.00,,,0.00,WeatherDisplay:10.37,2013-10-24 17:02:00,
2013-10-24 12:12:00,44.6,23.4,30.09,WNW,296,2.0,7.0,43,0.00,,,0.00,WeatherDisplay:10.37,2013-10-24 17:12:00,
2013-10-24 12:22:00,44.4,21.6,30.09,West,268,7.0,12.0,40,0.00,,,0.00,WeatherDisplay:10.37,2013-10-24 17:22:00,
2013-10-24 12:32:00,44.2,21.4,30.09,West,272,3.0,9.0,40,0.00,,,0.00,WeatherDisplay:10.37,2013-10-24 17:32:00,
2013-10-24 12:42:00,44.1,20.1,30.09,NW,309,5.0,8.0,38,0.00,,,0.00,WeatherDisplay:10.37,2013-10-24 17:42:00,
2013-10-24 12:52:00,46.8,21.8,30.09,NW,318,7.0,11.0,37,0.00,,,0.00,WeatherDisplay:10.37,2013-10-24 17:52:00,
2013-10-24 13:02:00,46.7,19.1,30.09,WNW,293,6.0,9.0,33,0.00,,,0.00,WeatherDisplay:10.37,2013-10-24 18:02:00,
2013-10-24 13:12:00,45.5,17.3,30.09,West,281,5.0,14.0,32,0.00,,,0.00,WeatherDisplay:10.37,2013-10-24 18:12:00,
2013-10-24 13:22:00,46.7,19.1,30.09,WNW,298,7.0,14.0,33,0.00,,,0.00,WeatherDisplay:10.37,2013-10-24 18:22:00,
2013-10-24 13:32:00,46.2,17.9,30.09,West,277,5.0,12.0,32,0.00,,,0.00,WeatherDisplay:10.37,2013-10-24 18:32:00,
2013-10-24 13:42:00,45.5,17.3,30.09,WNW,287,6.0,12.0,32,0.00,,,0.00,WeatherDisplay:10.37,2013-10-24 18:42:00,
2013-10-24 13:52:00,46.0,17.7,30.09,NW,315,5.0,9.0,32,0.00,,,0.00,WeatherDisplay:10.37,2013-10-24 18:52:00,
2013-10-24 14:02:00,44.6,16.5,30.09,WNW,295,2.0,12.0,32,0.00,,,0.00,WeatherDisplay:10.37,2013-10-24 19:02:00,
2013-10-24 14:12:00,48.2,18.9,30.09,WNW,283,6.0,12.0,31,0.00,,,0.00,WeatherDisplay:10.37,2013-10-24 19:12:00,
2013-10-24 14:22:00,46.6,18.3,30.09,West,281,7.0,16.0,32,0.00,,,0.00,WeatherDisplay:10.37,2013-10-24 19:22:00,
2013-10-24 14:32:00,47.7,19.2,30.09,WNW,284,5.0,12.0,32,0.00,,,0.00,WeatherDisplay:10.37,2013-10-24 19:32:00,
2013-10-24 14:42:00,50.4,20.8,30.10,WNW,286,6.0,12.0,31,0.00,,,0.00,WeatherDisplay:10.37,2013-10-24 19:42:00,
2013-10-24 14:52:00,49.0,18.1,30.12,WNW,284,8.0,12.0,29,0.00,,,0.00,WeatherDisplay:10.37,2013-10-24 19:52:00,
2013-10-24 15:02:00,46.8,18.4,30.09,WNW,284,6.0,12.0,32,0.00,,,0.00,WeatherDisplay:10.37,2013-10-24 20:02:00,
2013-10-24 15:12:00,45.8,17.5,30.09,West,277,7.0,16.0,32,0.00,,,0.00,WeatherDisplay:10.37,2013-10-24 20:12:00,
2013-10-24 15:22:00,48.0,19.5,30.08,WNW,285,6.0,12.0,32,0.00,,,0.00,WeatherDisplay:10.37,2013-10-24 20:22:00,
2013-10-24 15:32:00,47.5,19.0,30.11,WNW,292,7.0,14.0,32,0.00,,,0.00,WeatherDisplay:10.37,2013-10-24 20:32:00,
2013-10-24 15:42:00,47.1,19.5,30.11,WNW,292,6.0,12.0,33,0.00,,,0.00,WeatherDisplay:10.37,2013-10-24 20:42:00,
2013-10-24 15:52:00,46.8,19.1,30.11,WNW,290,5.0,10.0,33,0.00,,,0.00,WeatherDisplay:10.37,2013-10-24 20:52:00,
2013-10-24 16:02:00,46.2,18.7,30.11,West,280,6.0,14.0,33,0.00,,,0.00,WeatherDisplay:10.37,2013-10-24 21:02:00,
2013-10-24 16:12:00,46.2,18.7,30.11,WNW,284,7.0,12.0,33,0.00,,,0.00,WeatherDisplay:10.37,2013-10-24 21:12:00,
2013-10-24 16:22:00,46.0,18.5,30.11,West,276,7.0,12.0,33,0.00,,,0.00,WeatherDisplay:10.37,2013-10-24 21:22:00,
2013-10-24 16:32:00,46.0,18.5,30.11,West,280,5.0,13.0,33,0.00,,,0.00,WeatherDisplay:10.37,2013-10-24 21:32:00,
2013-10-24 16:42:00,45.7,18.2,30.11,WNW,284,5.0,12.0,33,0.00,,,0.00,WeatherDisplay:10.37,2013-10-24 21:42:00,
2013-10-24 16:52:00,45.5,19.4,30.11,WNW,284,3.0,9.0,35,0.00,,,0.00,WeatherDisplay:10.37,2013-10-24 21:52:00,
2013-10-24 17:02:00,45.1,19.7,30.14,WNW,297,3.0,10.0,36,0.00,,,0.00,WeatherDisplay:10.37,2013-10-24 22:02:00,
2013-10-24 17:12:00,45.0,19.6,30.14,West,280,3.0,9.0,36,0.00,,,0.00,WeatherDisplay:10.37,2013-10-24 22:12:00,
2013-10-24 17:22:00,44.4,19.1,30.14,West,278,5.0,14.0,36,0.00,,,0.00,WeatherDisplay:10.37,2013-10-24 22:22:00,
2013-10-24 17:32:00,43.8,19.8,30.11,West,268,7.0,9.0,38,0.00,,,0.00,WeatherDisplay:10.37,2013-10-24 22:32:00,
2013-10-24 17:42:00,43.2,21.1,30.12,West,268,3.0,10.0,41,0.00,,,0.00,WeatherDisplay:10.37,2013-10-24 22:42:00,
2013-10-24 17:52:00,42.8,21.8,30.14,WNW,285,5.0,12.0,43,0.00,,,0.00,WeatherDisplay:10.37,2013-10-24 22:52:00,
2013-10-24 18:02:00,42.6,22.2,30.14,West,261,5.0,10.0,44,0.00,,,0.00,WeatherDisplay:10.37,2013-10-24 23:02:00,
2013-10-24 18:12:00,42.4,22.0,30.14,West,265,2.0,9.0,44,0.00,,,0.00,WeatherDisplay:10.37,2013-10-24 23:12:00,
2013-10-24 18:22:00,42.1,21.7,30.14,West,272,3.0,7.0,44,0.00,,,0.00,WeatherDisplay:10.37,2013-10-24 23:22:00,
2013-10-24 18:32:00,41.9,21.5,30.14,West,276,2.0,7.0,44,0.00,,,0.00,WeatherDisplay:10.37,2013-10-24 23:32:00,
2013-10-24 18:42:00,41.5,21.8,30.14,WNW,287,0.0,3.0,45,0.00,,,0.00,WeatherDisplay:10.37,2013-10-24 23:42:00,
2013-10-24 18:52:00,41.2,21.4,30.14,West,279,3.0,6.0,45,0.00,,,0.00,WeatherDisplay:10.37,2013-10-24 23:52:00,
2013-10-24 19:02:00,41.0,21.3,30.14,West,275,3.0,6.0,45,0.00,,,0.00,WeatherDisplay:10.37,2013-10-25 00:02:00,
2013-10-24 19:12:00,40.8,21.1,30.15,West,272,3.0,7.0,45,0.00,,,0.00,WeatherDisplay:10.37,2013-10-25 00:12:00,
2013-10-24 19:22:00,40.8,21.1,30.17,WNW,293,3.0,7.0,45,0.00,,,0.00,WeatherDisplay:10.37,2013-10-25 00:22:00,
2013-10-24 19:32:00,41.0,21.3,30.17,WNW,299,3.0,7.0,45,0.00,,,0.00,WeatherDisplay:10.37,2013-10-25 00:32:00,
2013-10-24 19:42:00,41.0,21.3,30.17,WNW,298,3.0,8.0,45,0.00,,,0.00,WeatherDisplay:10.37,2013-10-25 00:42:00,
2013-10-24 19:52:00,40.8,21.1,30.17,NW,304,3.0,8.0,45,0.00,,,0.00,WeatherDisplay:10.37,2013-10-25 00:52:00,
2013-10-24 20:02:00,40.5,20.8,30.17,WNW,289,3.0,6.0,45,0.00,,,0.00,WeatherDisplay:10.37,2013-10-25 01:02:00,
2013-10-24 20:12:00,40.1,20.4,30.17,West,276,2.0,7.0,45,0.00,,,0.00,WeatherDisplay:10.37,2013-10-25 01:12:00,
2013-10-24 20:22:00,39.7,20.6,30.17,West,276,2.0,5.0,46,0.00,,,0.00,WeatherDisplay:10.37,2013-10-25 01:22:00,
2013-10-24 20:32:00,39.2,20.1,30.17,WNW,282,3.0,6.0,46,0.00,,,0.00,WeatherDisplay:10.37,2013-10-25 01:32:00,
2013-10-24 20:42:00,38.8,20.3,30.17,West,271,2.0,7.0,47,0.00,,,0.00,WeatherDisplay:10.37,2013-10-25 01:42:00,
2013-10-24 20:52:00,38.3,19.8,30.17,West,278,2.0,6.0,47,0.00,,,0.00,WeatherDisplay:10.37,2013-10-25 01:52:00,
2013-10-24 21:02:00,37.0,19.6,30.20,NW,315,0.0,3.0,49,0.00,,,0.00,WeatherDisplay:10.37,2013-10-25 02:02:00,
2013-10-24 21:12:00,36.1,19.2,30.20,WNW,290,1.0,3.0,50,0.00,,,0.00,WeatherDisplay:10.37,2013-10-25 02:12:00,
2013-10-24 21:22:00,35.6,19.2,30.17,West,271,1.0,5.0,51,0.00,,,0.00,WeatherDisplay:10.37,2013-10-25 02:22:00,
2013-10-24 21:32:00,34.5,18.7,30.20,West,273,2.0,3.0,52,0.00,,,0.00,WeatherDisplay:10.37,2013-10-25 02:32:00,
2013-10-24 21:42:00,34.1,19.2,30.20,West,275,0.0,3.0,54,0.00,,,0.00,WeatherDisplay:10.37,2013-10-25 02:42:00,
2013-10-24 21:52:00,33.1,18.7,30.20,West,264,2.0,4.0,55,0.00,,,0.00,WeatherDisplay:10.37,2013-10-25 02:52:00,
2013-10-24 22:02:00,32.5,18.6,30.20,WSW,251,0.0,4.0,56,0.00,,,0.00,WeatherDisplay:10.37,2013-10-25 03:02:00,
2013-10-24 22:12:00,31.8,18.3,30.20,WSW,258,1.0,2.0,57,0.00,,,0.00,WeatherDisplay:10.37,2013-10-25 03:12:00,
2013-10-24 22:22:00,31.3,18.2,30.20,SW,226,0.0,3.0,58,0.00,,,0.00,WeatherDisplay:10.37,2013-10-25 03:22:00,
2013-10-24 22:32:00,30.7,18.5,30.20,SW,225,1.0,2.0,60,0.00,,,0.00,WeatherDisplay:10.37,2013-10-25 03:32:00,
2013-10-24 22:42:00,30.2,18.0,30.20,SW,216,0.0,3.0,60,0.00,,,0.00,WeatherDisplay:10.37,2013-10-25 03:42:00,
2013-10-24 22:52:00,29.8,18.0,30.23,SW,236,1.0,2.0,61,0.00,,,0.00,WeatherDisplay:10.37,2013-10-25 03:52:00,
2013-10-24 23:02:00,29.7,17.8,30.20,SW,230,2.0,3.0,61,0.00,,,0.00,WeatherDisplay:10.37,2013-10-25 04:02:00,
2013-10-24 23:12:00,29.5,17.7,30.20,SW,233,2.0,4.0,61,0.00,,,0.00,WeatherDisplay:10.37,2013-10-25 04:12:00,
2013-10-24 23:22:00,29.3,18.3,30.20,SW,236,1.0,3.0,63,0.00,,,0.00,WeatherDisplay:10.37,2013-10-25 04:22:00,
2013-10-24 23:32:00,29.1,18.5,30.20,WSW,239,2.0,3.0,64,0.00,,,0.00,WeatherDisplay:10.37,2013-10-25 04:32:00,
2013-10-24 23:42:00,28.9,18.3,30.20,WSW,237,1.0,3.0,64,0.00,,,0.00,WeatherDisplay:10.37,2013-10-25 04:42:00,
2013-10-24 23:52:00,28.9,18.6,30.20,SW,229,2.0,4.0,65,0.00,,,0.00,WeatherDisplay:10.37,2013-10-25 04:52:00,